createdAt,value
2018-05-29T00:00:25.452Z,17.49
2018-05-29T00:02:53.190Z,17.47
2018-05-29T00:05:19.718Z,17.33
2018-05-29T00:07:46.129Z,17.33
2018-05-29T00:10:12.571Z,17.34
2018-05-29T00:12:39.055Z,17.31
2018-05-29T00:15:05.436Z,17.46
2018-05-29T00:17:31.858Z,17.11
2018-05-29T00:19:58.419Z,16.91
2018-05-29T00:22:24.783Z,17.25
2018-05-29T00:24:51.261Z,17.00
2018-05-29T00:27:17.643Z,16.84
2018-05-29T00:29:44.010Z,16.79
2018-05-29T00:32:10.446Z,17.04
2018-05-29T00:34:36.802Z,16.91
2018-05-29T00:37:04.015Z,16.79
2018-05-29T00:39:30.458Z,16.87
2018-05-29T00:41:56.841Z,16.80
2018-05-29T00:44:23.369Z,16.96
2018-05-29T00:46:49.750Z,16.74
2018-05-29T00:49:16.111Z,16.67
2018-05-29T00:51:42.505Z,16.61
2018-05-29T00:54:09.582Z,16.64
2018-05-29T00:56:36.099Z,16.95
2018-05-29T00:59:02.496Z,17.10
2018-05-29T01:01:28.921Z,17.26
2018-05-29T01:03:55.274Z,17.26
2018-05-29T01:06:21.698Z,16.86
2018-05-29T01:08:48.115Z,16.54
2018-05-29T01:11:14.450Z,16.80
2018-05-29T01:13:40.876Z,16.82
2018-05-29T01:16:07.215Z,16.59
2018-05-29T01:18:33.596Z,16.49
2018-05-29T01:21:00.542Z,16.76
2018-05-29T01:23:26.954Z,16.55
2018-05-29T01:25:53.458Z,16.56
2018-05-29T01:28:19.866Z,16.37
2018-05-29T01:30:46.221Z,16.56
2018-05-29T01:33:12.535Z,16.72
2018-05-29T01:35:39.067Z,16.80
2018-05-29T01:38:05.527Z,16.60
2018-05-29T01:40:31.869Z,16.83
2018-05-29T01:42:58.248Z,16.99
2018-05-29T01:45:24.603Z,16.98
2018-05-29T01:47:51.052Z,17.01
2018-05-29T01:50:17.592Z,16.84
2018-05-29T01:52:44.124Z,16.82
2018-05-29T01:55:10.526Z,17.00
2018-05-29T01:57:36.987Z,17.02
2018-05-29T02:00:03.352Z,16.84
2018-05-29T02:02:29.764Z,16.79
2018-05-29T02:04:56.228Z,16.94
2018-05-29T02:07:22.582Z,16.83
2018-05-29T02:09:49.053Z,16.93
2018-05-29T02:12:15.497Z,16.93
2018-05-29T02:14:41.919Z,17.09
2018-05-29T02:17:08.432Z,17.11
2018-05-29T02:19:34.895Z,17.17
2018-05-29T02:22:01.254Z,17.16
2018-05-29T02:24:27.632Z,17.09
2018-05-29T02:26:54.034Z,17.20
2018-05-29T02:29:20.450Z,17.17
2018-05-29T02:31:46.838Z,17.25
2018-05-29T02:34:13.221Z,17.26
2018-05-29T02:36:39.626Z,17.24
2018-05-29T02:39:05.983Z,17.39
2018-05-29T02:41:32.460Z,17.56
2018-05-29T02:43:58.873Z,17.83
2018-05-29T02:46:25.261Z,17.99
2018-05-29T02:48:51.737Z,17.94
2018-05-29T02:51:18.930Z,17.88
2018-05-29T02:53:45.321Z,17.98
2018-05-29T02:56:11.754Z,18.01
2018-05-29T02:58:38.114Z,17.91
2018-05-29T03:01:04.498Z,17.93
2018-05-29T03:03:30.900Z,17.90
2018-05-29T03:05:58.188Z,18.06
2018-05-29T03:08:24.587Z,18.06
2018-05-29T03:10:50.998Z,18.15
2018-05-29T03:13:17.394Z,18.14
2018-05-29T03:15:43.742Z,18.19
2018-05-29T03:18:10.191Z,18.35
2018-05-29T03:20:36.565Z,18.16
2018-05-29T03:23:02.946Z,18.00
2018-05-29T03:25:29.453Z,18.14
2018-05-29T03:27:55.834Z,18.25
2018-05-29T03:30:22.232Z,18.27
2018-05-29T03:32:48.664Z,18.39
2018-05-29T03:35:15.036Z,18.43
2018-05-29T03:37:41.419Z,18.39
2018-05-29T03:40:07.849Z,18.46
2018-05-29T03:42:34.212Z,18.57
2018-05-29T03:45:00.569Z,18.45
2018-05-29T03:47:26.970Z,18.38
2018-05-29T03:49:53.426Z,18.34
2018-05-29T03:52:19.791Z,18.33
2018-05-29T03:54:46.244Z,18.43
2018-05-29T03:57:12.609Z,18.53
2018-05-29T03:59:38.956Z,18.54
2018-05-29T04:02:05.454Z,18.45
2018-05-29T04:04:31.828Z,18.37
2018-05-29T04:06:59.248Z,18.40
2018-05-29T04:09:25.761Z,18.54
2018-05-29T04:11:52.046Z,18.69
2018-05-29T04:14:18.414Z,18.84
2018-05-29T04:16:44.825Z,18.68
2018-05-29T04:19:11.171Z,18.78
2018-05-29T04:21:38.353Z,18.80
2018-05-29T04:24:04.937Z,18.84
2018-05-29T04:26:31.332Z,18.91
2018-05-29T04:28:57.709Z,18.90
2018-05-29T04:31:24.071Z,18.88
2018-05-29T04:33:51.060Z,18.87
2018-05-29T04:36:17.521Z,18.87
2018-05-29T04:38:43.924Z,19.00
2018-05-29T04:41:10.318Z,19.05
2018-05-29T04:43:36.852Z,19.12
2018-05-29T04:46:03.334Z,19.21
2018-05-29T04:48:29.715Z,19.24
2018-05-29T04:50:56.108Z,19.33
2018-05-29T04:53:22.558Z,19.40
2018-05-29T04:55:49.225Z,19.43
2018-05-29T04:58:15.580Z,19.45
2018-05-29T05:00:42.064Z,19.44
2018-05-29T05:03:08.465Z,19.37
2018-05-29T05:05:34.924Z,19.39
2018-05-29T05:08:01.360Z,19.34
2018-05-29T05:10:27.721Z,19.57
2018-05-29T05:12:54.096Z,19.65
2018-05-29T05:15:20.505Z,19.72
2018-05-29T05:17:46.850Z,19.74
2018-05-29T05:20:13.346Z,19.79
2018-05-29T05:22:39.774Z,19.89
2018-05-29T05:25:06.123Z,19.93
2018-05-29T05:27:32.481Z,20.01
2018-05-29T05:29:59.207Z,20.14
2018-05-29T05:32:25.553Z,20.28
2018-05-29T05:34:51.979Z,20.22
2018-05-29T05:37:18.459Z,20.31
2018-05-29T05:39:44.830Z,20.39
2018-05-29T05:42:11.268Z,20.54
2018-05-29T05:44:37.721Z,20.63
2018-05-29T05:47:04.066Z,20.74
2018-05-29T05:49:31.456Z,20.82
2018-05-29T05:51:57.889Z,20.81
2018-05-29T05:54:24.420Z,20.91
2018-05-29T05:56:50.971Z,20.80
2018-05-29T05:59:17.492Z,20.71
2018-05-29T06:01:43.859Z,20.90
2018-05-29T06:04:10.353Z,20.97
2018-05-29T06:06:36.768Z,20.92
2018-05-29T06:09:04.222Z,21.12
2018-05-29T06:11:30.659Z,21.04
2018-05-29T06:13:57.114Z,21.04
2018-05-29T06:16:23.608Z,21.14
2018-05-29T06:18:49.957Z,21.35
2018-05-29T06:21:16.353Z,21.47
2018-05-29T06:23:42.745Z,21.44
2018-05-29T06:26:09.383Z,21.41
2018-05-29T06:28:35.994Z,21.53
2018-05-29T06:31:02.512Z,21.74
2018-05-29T06:33:29.120Z,21.88
2018-05-29T06:35:56.401Z,21.94
2018-05-29T06:38:22.914Z,21.86
2018-05-29T06:40:49.368Z,21.88
2018-05-29T06:43:15.903Z,21.95
2018-05-29T06:45:59.561Z,22.04
2018-05-29T06:51:11.506Z,22.17
2018-05-29T06:53:38.154Z,22.29
2018-05-29T06:56:04.735Z,22.32
2018-05-29T06:58:31.190Z,22.46
2018-05-29T07:00:57.646Z,22.52
2018-05-29T07:03:24.083Z,22.70
2018-05-29T07:05:50.578Z,22.76
2018-05-29T07:08:17.028Z,22.74
2018-05-29T07:10:43.665Z,22.79
2018-05-29T07:13:10.072Z,22.90
2018-05-29T07:15:36.540Z,22.90
2018-05-29T07:18:02.966Z,22.92
2018-05-29T07:20:29.518Z,22.96
2018-05-29T07:22:55.993Z,23.03
2018-05-29T07:25:22.469Z,23.16
2018-05-29T07:27:49.683Z,23.32
2018-05-29T07:30:16.168Z,23.41
2018-05-29T07:32:42.669Z,23.40
2018-05-29T07:35:09.162Z,23.35
2018-05-29T07:37:35.626Z,23.40
2018-05-29T07:40:02.182Z,23.25
2018-05-29T07:42:28.793Z,23.19
2018-05-29T07:44:55.270Z,23.06
2018-05-29T07:47:21.889Z,23.13
2018-05-29T07:49:48.350Z,22.97
2018-05-29T07:52:14.827Z,23.19
2018-05-29T07:54:41.315Z,23.25
2018-05-29T07:57:07.768Z,23.43
2018-05-29T07:59:34.231Z,23.65
2018-05-29T08:02:00.746Z,23.76
2018-05-29T08:04:27.206Z,23.95
2018-05-29T08:06:53.730Z,24.07
2018-05-29T08:09:20.244Z,24.12
2018-05-29T08:11:46.862Z,24.30
2018-05-29T08:14:13.314Z,24.33
2018-05-29T08:16:39.798Z,24.47
2018-05-29T08:19:06.298Z,24.52
2018-05-29T08:21:32.754Z,24.67
2018-05-29T08:23:59.186Z,24.74
2018-05-29T08:26:25.850Z,24.46
2018-05-29T08:28:52.364Z,24.58
2018-05-29T08:31:18.864Z,24.52
2018-05-29T08:33:45.296Z,24.61
2018-05-29T08:36:11.778Z,24.68
2018-05-29T08:38:38.193Z,24.69
2018-05-29T08:41:04.725Z,24.80
2018-05-29T08:43:31.370Z,24.91
2018-05-29T08:45:57.845Z,24.96
2018-05-29T08:48:24.360Z,24.94
2018-05-29T08:50:51.015Z,24.97
2018-05-29T08:53:17.592Z,25.01
2018-05-29T08:55:44.026Z,25.13
2018-05-29T08:58:10.514Z,25.28
2018-05-29T09:00:36.986Z,25.35
2018-05-29T09:03:03.490Z,25.50
2018-05-29T09:05:30.176Z,25.57
2018-05-29T09:07:56.775Z,25.57
2018-05-29T09:10:23.284Z,25.60
2018-05-29T09:12:49.874Z,25.68
2018-05-29T09:15:16.560Z,25.70
2018-05-29T09:17:43.224Z,25.65
2018-05-29T09:20:09.762Z,25.69
2018-05-29T09:22:36.354Z,25.74
2018-05-29T09:25:02.831Z,25.79
2018-05-29T09:27:29.348Z,25.84
2018-05-29T09:29:56.179Z,25.87
2018-05-29T09:32:22.685Z,25.90
2018-05-29T09:34:49.132Z,25.91
2018-05-29T09:37:15.572Z,25.84
2018-05-29T09:39:42.072Z,25.94
2018-05-29T09:42:08.670Z,26.04
2018-05-29T09:44:35.292Z,26.02
2018-05-29T09:47:01.886Z,26.08
2018-05-29T09:49:28.330Z,26.07
2018-05-29T09:51:54.881Z,26.15
2018-05-29T09:54:21.408Z,26.09
2018-05-29T09:56:48.056Z,26.18
2018-05-29T09:59:14.497Z,26.24
2018-05-29T10:01:41.093Z,26.24
2018-05-29T10:04:07.780Z,26.25
2018-05-29T10:06:34.252Z,26.30
2018-05-29T10:09:00.744Z,26.37
2018-05-29T10:11:27.287Z,26.36
2018-05-29T10:13:53.807Z,26.41
2018-05-29T10:16:20.288Z,26.46
2018-05-29T10:18:46.801Z,26.62
2018-05-29T10:21:13.260Z,26.50
2018-05-29T10:23:39.752Z,26.50
2018-05-29T10:26:06.311Z,26.52
2018-05-29T10:28:32.741Z,26.58
2018-05-29T10:30:59.284Z,26.68
2018-05-29T10:33:25.735Z,26.67
2018-05-29T10:35:52.212Z,26.70
2018-05-29T10:38:18.683Z,26.73
2018-05-29T10:40:45.344Z,26.80
2018-05-29T10:43:12.760Z,26.74
2018-05-29T10:45:39.243Z,26.84
2018-05-29T10:48:05.747Z,26.76
2018-05-29T10:50:32.163Z,26.76
2018-05-29T10:52:58.641Z,26.84
2018-05-29T10:55:25.433Z,26.80
2018-05-29T10:57:51.892Z,26.86
2018-05-29T11:00:18.335Z,26.88
2018-05-29T11:02:44.786Z,26.86
2018-05-29T11:05:11.247Z,26.92
2018-05-29T11:07:37.623Z,26.92
2018-05-29T11:10:04.030Z,27.04
2018-05-29T11:12:30.513Z,27.03
2018-05-29T11:14:56.853Z,27.00
2018-05-29T11:17:23.268Z,27.05
2018-05-29T11:19:50.263Z,27.22
2018-05-29T11:22:16.600Z,27.23
2018-05-29T11:24:42.950Z,27.16
2018-05-29T11:27:09.352Z,27.07
2018-05-29T11:29:35.964Z,27.10
2018-05-29T11:32:02.384Z,27.22
2018-05-29T11:34:28.717Z,27.17
2018-05-29T11:36:55.058Z,27.28
2018-05-29T11:39:21.611Z,27.36
2018-05-29T11:41:48.063Z,27.25
2018-05-29T11:44:14.439Z,27.27
2018-05-29T11:46:40.895Z,27.23
2018-05-29T11:49:07.301Z,27.22
2018-05-29T11:51:33.641Z,27.24
2018-05-29T11:54:00.099Z,27.26
2018-05-29T11:56:26.645Z,27.23
2018-05-29T11:58:52.948Z,27.15
2018-05-29T12:01:19.285Z,27.24
2018-05-29T12:03:45.873Z,27.26
2018-05-29T12:06:12.281Z,27.30
2018-05-29T12:08:38.815Z,27.22
2018-05-29T12:11:06.227Z,27.36
2018-05-29T12:13:32.603Z,27.38
2018-05-29T12:15:58.939Z,27.33
2018-05-29T12:18:25.405Z,27.50
2018-05-29T12:20:52.066Z,27.44
2018-05-29T12:23:18.386Z,27.30
2018-05-29T12:25:44.902Z,27.48
2018-05-29T12:28:11.327Z,27.41
2018-05-29T12:30:37.701Z,27.56
2018-05-29T12:33:04.044Z,27.53
2018-05-29T12:35:30.507Z,27.39
2018-05-29T12:37:56.866Z,27.50
2018-05-29T12:40:23.251Z,27.54
2018-05-29T12:42:49.806Z,27.66
2018-05-29T12:45:16.110Z,27.63
2018-05-29T12:47:42.504Z,27.67
2018-05-29T12:50:08.901Z,27.58
2018-05-29T12:52:35.286Z,27.64
2018-05-29T12:55:01.942Z,27.65
2018-05-29T12:57:28.341Z,27.88
2018-05-29T12:59:54.748Z,27.62
2018-05-29T13:02:21.149Z,27.65
2018-05-29T13:04:47.482Z,27.50
2018-05-29T13:07:13.810Z,27.45
2018-05-29T13:09:40.167Z,27.55
2018-05-29T13:12:06.472Z,27.57
2018-05-29T13:14:32.822Z,27.59
2018-05-29T13:16:59.138Z,27.79
2018-05-29T13:19:25.462Z,27.60
2018-05-29T13:21:51.784Z,27.61
2018-05-29T13:24:18.053Z,27.53
2018-05-29T13:26:44.520Z,27.76
2018-05-29T13:29:10.849Z,27.52
2018-05-29T13:31:37.206Z,27.63
2018-05-29T13:34:03.551Z,27.64
2018-05-29T13:36:29.846Z,27.74
2018-05-29T13:38:56.145Z,27.73
2018-05-29T13:41:22.570Z,27.83
2018-05-29T13:43:48.912Z,27.78
2018-05-29T13:46:15.266Z,27.62
2018-05-29T13:48:41.608Z,27.58
2018-05-29T13:51:07.997Z,27.52
2018-05-29T13:53:34.332Z,27.71
2018-05-29T13:56:01.687Z,27.74
2018-05-29T13:58:28.145Z,27.51
2018-05-29T14:00:54.509Z,27.43
2018-05-29T14:03:20.805Z,27.56
2018-05-29T14:05:47.232Z,27.63
2018-05-29T14:08:13.708Z,27.75
2018-05-29T14:10:40.159Z,27.63
2018-05-29T14:13:06.465Z,27.44
2018-05-29T14:15:32.802Z,27.40
2018-05-29T14:17:59.199Z,27.45
2018-05-29T14:20:25.618Z,27.37
2018-05-29T14:22:51.968Z,27.08
2018-05-29T14:25:18.279Z,27.14
2018-05-29T14:27:44.612Z,27.03
2018-05-29T14:30:11.037Z,27.29
2018-05-29T14:32:37.368Z,27.35
2018-05-29T14:35:03.734Z,27.39
2018-05-29T14:37:30.082Z,27.30
2018-05-29T14:39:56.421Z,27.10
2018-05-29T14:42:22.722Z,27.21
2018-05-29T14:44:49.124Z,27.24
2018-05-29T14:47:15.662Z,27.16
2018-05-29T14:49:42.069Z,27.14
2018-05-29T14:52:08.450Z,27.24
2018-05-29T14:54:34.765Z,27.51
2018-05-29T14:57:01.144Z,27.58
2018-05-29T14:59:27.524Z,27.70
2018-05-29T15:01:53.909Z,27.74
2018-05-29T15:04:20.314Z,27.51
2018-05-29T15:06:46.653Z,27.50
2018-05-29T15:09:12.984Z,27.18
2018-05-29T15:11:39.304Z,27.42
2018-05-29T15:14:05.649Z,27.34
2018-05-29T15:16:31.994Z,27.37
2018-05-29T15:18:58.289Z,27.15
2018-05-29T15:21:24.654Z,27.30
2018-05-29T15:23:50.980Z,27.20
2018-05-29T15:26:17.369Z,27.15
2018-05-29T15:28:43.706Z,27.32
2018-05-29T15:31:10.017Z,27.42
2018-05-29T15:33:36.338Z,27.41
2018-05-29T15:36:02.718Z,27.21
2018-05-29T15:38:29.054Z,27.40
2018-05-29T15:40:55.396Z,27.20
2018-05-29T15:43:21.696Z,27.18
2018-05-29T15:45:48.038Z,27.11
2018-05-29T15:48:14.399Z,27.05
2018-05-29T15:50:40.717Z,27.21
2018-05-29T15:53:07.149Z,27.19
2018-05-29T15:55:33.454Z,27.22
2018-05-29T15:57:59.801Z,27.33
2018-05-29T16:00:26.106Z,27.02
2018-05-29T16:02:52.443Z,26.95
2018-05-29T16:05:18.772Z,26.98
2018-05-29T16:07:45.140Z,27.11
2018-05-29T16:10:11.520Z,26.85
2018-05-29T16:12:37.920Z,26.90
2018-05-29T16:15:04.608Z,26.84
2018-05-29T16:17:31.301Z,26.99
2018-05-29T16:19:57.648Z,27.22
2018-05-29T16:22:23.988Z,27.14
2018-05-29T16:24:50.326Z,26.78
2018-05-29T16:27:16.674Z,26.99
2018-05-29T16:29:43.042Z,26.93
2018-05-29T16:32:09.398Z,26.81
2018-05-29T16:34:35.836Z,26.50
2018-05-29T16:37:02.183Z,26.59
2018-05-29T16:39:28.506Z,26.63
2018-05-29T16:41:54.836Z,26.65
2018-05-29T16:44:21.241Z,26.67
2018-05-29T16:46:47.594Z,26.63
2018-05-29T16:49:13.959Z,26.67
2018-05-29T16:51:40.266Z,26.76
2018-05-29T16:54:06.590Z,26.80
2018-05-29T16:56:32.978Z,26.75
2018-05-29T16:58:59.285Z,26.70
2018-05-29T17:01:25.642Z,26.83
2018-05-29T17:03:51.944Z,26.60
2018-05-29T17:06:18.236Z,26.78
2018-05-29T17:08:44.584Z,26.78
2018-05-29T17:11:10.905Z,26.64
2018-05-29T17:13:37.240Z,26.67
2018-05-29T17:16:03.605Z,26.40
2018-05-29T17:18:29.907Z,26.69
2018-05-29T17:20:56.559Z,26.47
2018-05-29T17:23:23.183Z,26.70
2018-05-29T17:25:49.706Z,26.48
2018-05-29T17:28:16.021Z,26.28
2018-05-29T17:30:42.329Z,26.51
2018-05-29T17:33:08.762Z,26.60
2018-05-29T17:35:35.050Z,26.42
2018-05-29T17:38:01.388Z,26.55
2018-05-29T17:40:27.712Z,26.51
2018-05-29T17:42:54.370Z,26.57
2018-05-29T17:45:20.707Z,26.45
2018-05-29T17:47:47.031Z,26.37
2018-05-29T17:50:13.390Z,26.24
2018-05-29T17:52:39.727Z,26.30
2018-05-29T17:55:06.120Z,26.16
2018-05-29T17:57:32.472Z,26.03
2018-05-29T17:59:58.872Z,26.23
2018-05-29T18:02:25.199Z,26.20
2018-05-29T18:04:51.513Z,26.18
2018-05-29T18:07:17.886Z,26.30
2018-05-29T18:09:44.247Z,26.02
2018-05-29T18:12:10.595Z,25.94
2018-05-29T18:14:36.984Z,25.87
2018-05-29T18:17:03.298Z,26.01
2018-05-29T18:19:29.649Z,25.87
2018-05-29T18:21:56.033Z,26.03
2018-05-29T18:24:22.383Z,25.80
2018-05-29T18:26:48.706Z,25.64
2018-05-29T18:29:15.174Z,25.64
2018-05-29T18:31:41.538Z,25.78
2018-05-29T18:34:07.887Z,25.78
2018-05-29T18:36:34.286Z,25.72
2018-05-29T18:39:00.619Z,25.39
2018-05-29T18:41:26.964Z,25.30
2018-05-29T18:43:53.344Z,25.00
2018-05-29T18:46:19.741Z,25.35
2018-05-29T18:48:47.153Z,25.49
2018-05-29T18:51:13.458Z,25.27
2018-05-29T18:53:39.919Z,24.80
2018-05-29T18:56:06.271Z,24.84
2018-05-29T18:58:32.672Z,25.00
2018-05-29T19:00:58.998Z,25.28
2018-05-29T19:03:25.447Z,25.27
2018-05-29T19:05:51.779Z,25.32
2018-05-29T19:08:18.083Z,25.04
2018-05-29T19:10:44.602Z,25.37
2018-05-29T19:13:10.949Z,25.20
2018-05-29T19:15:38.290Z,25.04
2018-05-29T19:18:04.646Z,24.92
2018-05-29T19:20:30.974Z,24.77
2018-05-29T19:22:57.391Z,24.66
2018-05-29T19:25:23.656Z,24.78
2018-05-29T19:27:50.022Z,25.06
2018-05-29T19:30:16.346Z,24.76
2018-05-29T19:32:42.717Z,24.74
2018-05-29T19:35:09.093Z,24.81
2018-05-29T19:37:35.503Z,24.79
2018-05-29T19:40:01.822Z,24.71
2018-05-29T19:42:28.137Z,24.25
2018-05-29T19:44:54.477Z,24.35
2018-05-29T19:47:20.845Z,24.66
2018-05-29T19:49:47.188Z,24.63
2018-05-29T19:52:13.588Z,25.02
2018-05-29T19:54:40.079Z,24.57
2018-05-29T19:57:06.679Z,24.68
2018-05-29T19:59:33.014Z,24.79
2018-05-29T20:01:59.374Z,24.83
2018-05-29T20:04:25.746Z,24.46
2018-05-29T20:06:52.164Z,24.27
2018-05-29T20:09:18.462Z,24.31
2018-05-29T20:11:44.829Z,24.15
2018-05-29T20:14:11.140Z,24.71
2018-05-29T20:16:37.434Z,24.42
2018-05-29T20:19:03.861Z,24.16
2018-05-29T20:21:30.180Z,24.04
2018-05-29T20:23:56.566Z,23.88
2018-05-29T20:26:22.936Z,23.67
2018-05-29T20:28:49.309Z,23.95
2018-05-29T20:31:15.708Z,24.01
2018-05-29T20:33:42.096Z,23.68
2018-05-29T20:36:08.498Z,23.09
2018-05-29T20:38:34.846Z,22.97
2018-05-29T20:41:01.198Z,22.63
2018-05-29T20:43:27.583Z,22.77
2018-05-29T20:45:53.947Z,22.72
2018-05-29T20:48:20.298Z,22.47
2018-05-29T20:50:46.613Z,22.57
2018-05-29T20:53:12.969Z,22.54
2018-05-29T20:55:39.315Z,22.43
2018-05-29T20:58:06.596Z,22.19
2018-05-29T21:00:33.007Z,22.17
2018-05-29T21:02:59.357Z,22.09
2018-05-29T21:05:25.661Z,21.94
2018-05-29T21:07:52.008Z,21.90
2018-05-29T21:10:18.352Z,21.81
2018-05-29T21:12:44.687Z,21.75
2018-05-29T21:15:11.021Z,21.68
2018-05-29T21:17:37.400Z,21.77
2018-05-29T21:20:03.745Z,22.02
2018-05-29T21:22:30.093Z,22.33
2018-05-29T21:24:56.405Z,22.30
2018-05-29T21:27:22.849Z,22.17
2018-05-29T21:29:49.161Z,21.93
2018-05-29T21:32:15.537Z,21.91
2018-05-29T21:34:42.095Z,21.79
2018-05-29T21:37:08.425Z,21.69
2018-05-29T21:39:34.762Z,21.82
2018-05-29T21:42:01.099Z,21.81
2018-05-29T21:44:27.451Z,22.06
2018-05-29T21:46:53.808Z,21.85
2018-05-29T21:49:20.144Z,21.69
2018-05-29T21:51:46.494Z,21.52
2018-05-29T21:54:12.912Z,21.79
2018-05-29T21:56:39.266Z,21.80
2018-05-29T21:59:05.591Z,21.77
2018-05-29T22:01:31.945Z,21.77
2018-05-29T22:04:03.217Z,21.44
2018-05-29T22:06:29.631Z,21.57
2018-05-29T22:08:55.994Z,21.62
2018-05-29T22:11:22.333Z,21.68
2018-05-29T22:13:48.697Z,21.69
2018-05-29T22:16:15.054Z,21.69
2018-05-29T22:18:41.461Z,21.53
2018-05-29T22:21:07.811Z,21.43
2018-05-29T22:23:34.131Z,21.26
2018-05-29T22:26:00.469Z,21.21
2018-05-29T22:28:26.816Z,21.22
2018-05-29T22:30:54.143Z,21.19
2018-05-29T22:33:20.500Z,21.37
2018-05-29T22:35:46.939Z,21.37
2018-05-29T22:38:13.286Z,21.39
2018-05-29T22:40:39.648Z,21.48
2018-05-29T22:43:05.975Z,21.41
2018-05-29T22:45:32.363Z,21.39
2018-05-29T22:47:58.676Z,21.30
2018-05-29T22:50:25.164Z,21.32
2018-05-29T22:52:51.561Z,21.27
2018-05-29T22:55:17.975Z,21.14
2018-05-29T22:57:44.319Z,21.13
2018-05-29T23:00:10.730Z,21.07
2018-05-29T23:02:36.972Z,20.87
2018-05-29T23:05:03.331Z,21.06
2018-05-29T23:07:29.778Z,21.06
2018-05-29T23:09:56.260Z,21.06
2018-05-29T23:12:22.644Z,20.99
2018-05-29T23:14:49.127Z,20.89
2018-05-29T23:17:15.539Z,20.86
2018-05-29T23:19:41.918Z,20.99
2018-05-29T23:22:08.426Z,20.92
2018-05-29T23:24:34.840Z,20.98
2018-05-29T23:27:01.232Z,21.00
2018-05-29T23:29:27.627Z,21.13
2018-05-29T23:31:54.039Z,20.85
2018-05-29T23:34:20.466Z,20.69
2018-05-29T23:36:46.852Z,20.64
2018-05-29T23:39:13.262Z,20.67
2018-05-29T23:41:39.691Z,20.62
2018-05-29T23:44:06.106Z,20.73
2018-05-29T23:46:32.570Z,20.66
2018-05-29T23:48:59.023Z,20.83
2018-05-29T23:51:25.400Z,20.77
2018-05-29T23:53:51.787Z,20.73
2018-05-29T23:56:18.142Z,20.78
2018-05-29T23:58:44.514Z,20.61
